sensor_id;sensor_type;location;lat;lon;timestamp;temperature;humidity
21267;DHT22;10791;53.108;18.326;2023-09-18T00:04:44;15.60;99.90
21267;DHT22;10791;53.108;18.326;2023-09-18T00:09:47;15.60;99.90
21267;DHT22;10791;53.108;18.326;2023-09-18T00:14:51;15.50;99.90
21267;DHT22;10791;53.108;18.326;2023-09-18T00:19:54;15.50;99.90
21267;DHT22;10791;53.108;18.326;2023-09-18T00:24:58;15.50;99.90
21267;DHT22;10791;53.108;18.326;2023-09-18T00:30:00;15.40;99.90
21267;DHT22;10791;53.108;18.326;2023-09-18T00:35:04;15.40;99.90
21267;DHT22;10791;53.108;18.326;2023-09-18T00:40:08;15.40;99.90
21267;DHT22;10791;53.108;18.326;2023-09-18T00:45:11;15.30;99.90
21267;DHT22;10791;53.108;18.326;2023-09-18T00:50:14;15.30;99.90
21267;DHT22;10791;53.108;18.326;2023-09-18T00:55:17;15.30;99.90
21267;DHT22;10791;53.108;18.326;2023-09-18T01:00:21;15.30;99.90
21267;DHT22;10791;53.108;18.326;2023-09-18T01:05:25;15.20;99.90
21267;DHT22;10791;53.108;18.326;2023-09-18T01:10:56;15.20;99.90
21267;DHT22;10791;53.108;18.326;2023-09-18T01:16:17;15.00;99.90
21267;DHT22;10791;53.108;18.326;2023-09-18T01:21:20;14.90;99.90
21267;DHT22;10791;53.108;18.326;2023-09-18T01:26:25;14.90;99.90
21267;DHT22;10791;53.108;18.326;2023-09-18T01:31:29;14.80;99.90
21267;DHT22;10791;53.108;18.326;2023-09-18T01:36:32;14.80;99.90
21267;DHT22;10791;53.108;18.326;2023-09-18T01:41:35;14.80;99.90
21267;DHT22;10791;53.108;18.326;2023-09-18T01:46:38;14.80;99.90
21267;DHT22;10791;53.108;18.326;2023-09-18T01:51:42;14.80;99.90
21267;DHT22;10791;53.108;18.326;2023-09-18T01:56:45;14.70;99.90
21267;DHT22;10791;53.108;18.326;2023-09-18T02:01:49;14.70;99.90
21267;DHT22;10791;53.108;18.326;2023-09-18T02:06:53;14.70;99.90
21267;DHT22;10791;53.108;18.326;2023-09-18T02:11:56;14.60;99.90
21267;DHT22;10791;53.108;18.326;2023-09-18T02:17:00;14.40;99.90
21267;DHT22;10791;53.108;18.326;2023-09-18T02:22:03;14.40;99.90
21267;DHT22;10791;53.108;18.326;2023-09-18T02:27:06;14.30;99.90
21267;DHT22;10791;53.108;18.326;2023-09-18T02:32:09;14.20;99.90
21267;DHT22;10791;53.108;18.326;2023-09-18T02:37:13;14.10;99.90
21267;DHT22;10791;53.108;18.326;2023-09-18T02:42:16;14.10;99.90
21267;DHT22;10791;53.108;18.326;2023-09-18T02:47:19;14.00;99.90
21267;DHT22;10791;53.108;18.326;2023-09-18T02:52:22;14.00;99.90
21267;DHT22;10791;53.108;18.326;2023-09-18T02:57:25;14.00;99.90
21267;DHT22;10791;53.108;18.326;2023-09-18T03:02:28;13.90;99.90
21267;DHT22;10791;53.108;18.326;2023-09-18T03:07:31;13.90;99.90
21267;DHT22;10791;53.108;18.326;2023-09-18T03:12:34;13.90;99.90
21267;DHT22;10791;53.108;18.326;2023-09-18T03:17:37;13.90;99.90
21267;DHT22;10791;53.108;18.326;2023-09-18T03:22:40;13.90;99.90
21267;DHT22;10791;53.108;18.326;2023-09-18T03:27:43;13.90;99.90
21267;DHT22;10791;53.108;18.326;2023-09-18T03:32:46;13.90;99.90
21267;DHT22;10791;53.108;18.326;2023-09-18T03:37:52;13.90;99.90
21267;DHT22;10791;53.108;18.326;2023-09-18T03:42:56;13.80;99.90
21267;DHT22;10791;53.108;18.326;2023-09-18T03:48:03;13.80;99.90
21267;DHT22;10791;53.108;18.326;2023-09-18T03:53:07;13.70;99.90
21267;DHT22;10791;53.108;18.326;2023-09-18T03:58:10;13.60;99.90
21267;DHT22;10791;53.108;18.326;2023-09-18T04:03:13;13.30;99.90
21267;DHT22;10791;53.108;18.326;2023-09-18T04:08:17;13.20;99.90
21267;DHT22;10791;53.108;18.326;2023-09-18T04:13:20;13.20;99.90
21267;DHT22;10791;53.108;18.326;2023-09-18T04:18:23;13.20;99.90
21267;DHT22;10791;53.108;18.326;2023-09-18T04:23:27;13.30;99.90
21267;DHT22;10791;53.108;18.326;2023-09-18T04:28:30;13.30;99.90
21267;DHT22;10791;53.108;18.326;2023-09-18T04:33:33;13.40;99.90
21267;DHT22;10791;53.108;18.326;2023-09-18T04:38:36;13.40;99.90
21267;DHT22;10791;53.108;18.326;2023-09-18T04:43:39;13.40;99.90
21267;DHT22;10791;53.108;18.326;2023-09-18T04:48:43;13.40;99.90
21267;DHT22;10791;53.108;18.326;2023-09-18T04:53:46;13.40;99.90
21267;DHT22;10791;53.108;18.326;2023-09-18T04:58:48;13.40;99.90
21267;DHT22;10791;53.108;18.326;2023-09-18T05:03:52;13.50;99.90
21267;DHT22;10791;53.108;18.326;2023-09-18T05:08:56;13.50;99.90
21267;DHT22;10791;53.108;18.326;2023-09-18T05:14:00;13.60;99.90
21267;DHT22;10791;53.108;18.326;2023-09-18T05:19:03;13.60;99.90
21267;DHT22;10791;53.108;18.326;2023-09-18T05:24:06;13.60;99.90
21267;DHT22;10791;53.108;18.326;2023-09-18T05:29:10;13.80;99.90
21267;DHT22;10791;53.108;18.326;2023-09-18T05:34:13;13.80;99.90
21267;DHT22;10791;53.108;18.326;2023-09-18T05:39:16;14.00;99.90
21267;DHT22;10791;53.108;18.326;2023-09-18T05:44:19;14.20;99.90
21267;DHT22;10791;53.108;18.326;2023-09-18T05:49:22;14.30;99.90
21267;DHT22;10791;53.108;18.326;2023-09-18T05:54:26;14.50;99.90
21267;DHT22;10791;53.108;18.326;2023-09-18T05:59:30;14.80;99.90
21267;DHT22;10791;53.108;18.326;2023-09-18T06:04:33;15.00;99.90
21267;DHT22;10791;53.108;18.326;2023-09-18T06:09:39;15.30;99.90
21267;DHT22;10791;53.108;18.326;2023-09-18T06:14:42;15.50;99.90
21267;DHT22;10791;53.108;18.326;2023-09-18T06:19:45;15.80;99.90
21267;DHT22;10791;53.108;18.326;2023-09-18T06:24:48;16.00;99.90
21267;DHT22;10791;53.108;18.326;2023-09-18T06:29:52;16.20;99.90
21267;DHT22;10791;53.108;18.326;2023-09-18T06:34:55;16.30;99.90
21267;DHT22;10791;53.108;18.326;2023-09-18T06:40:00;16.50;99.90
21267;DHT22;10791;53.108;18.326;2023-09-18T06:45:07;16.80;99.90
21267;DHT22;10791;53.108;18.326;2023-09-18T06:50:10;17.00;99.90
21267;DHT22;10791;53.108;18.326;2023-09-18T06:55:15;17.20;99.90
21267;DHT22;10791;53.108;18.326;2023-09-18T07:00:19;17.50;99.90
21267;DHT22;10791;53.108;18.326;2023-09-18T07:05:27;17.70;99.90
21267;DHT22;10791;53.108;18.326;2023-09-18T07:10:30;18.00;99.90
21267;DHT22;10791;53.108;18.326;2023-09-18T07:15:33;18.20;99.90
21267;DHT22;10791;53.108;18.326;2023-09-18T07:20:36;18.60;99.90
21267;DHT22;10791;53.108;18.326;2023-09-18T07:25:39;18.90;99.90
21267;DHT22;10791;53.108;18.326;2023-09-18T07:30:47;19.20;99.90
21267;DHT22;10791;53.108;18.326;2023-09-18T07:35:50;19.50;99.90
21267;DHT22;10791;53.108;18.326;2023-09-18T07:40:56;19.90;99.90
21267;DHT22;10791;53.108;18.326;2023-09-18T07:45:59;20.10;99.90
21267;DHT22;10791;53.108;18.326;2023-09-18T07:51:04;20.40;99.90
21267;DHT22;10791;53.108;18.326;2023-09-18T07:56:08;20.60;99.90
21267;DHT22;10791;53.108;18.326;2023-09-18T08:01:11;21.00;99.90
21267;DHT22;10791;53.108;18.326;2023-09-18T08:06:14;21.30;99.90
21267;DHT22;10791;53.108;18.326;2023-09-18T08:11:21;21.40;99.90
21267;DHT22;10791;53.108;18.326;2023-09-18T08:16:24;21.70;99.90
21267;DHT22;10791;53.108;18.326;2023-09-18T08:21:27;22.00;99.90
21267;DHT22;10791;53.108;18.326;2023-09-18T08:26:31;22.30;99.90
21267;DHT22;10791;53.108;18.326;2023-09-18T08:31:34;22.60;99.90
21267;DHT22;10791;53.108;18.326;2023-09-18T08:36:38;23.00;99.90
21267;DHT22;10791;53.108;18.326;2023-09-18T08:41:42;23.20;99.90
21267;DHT22;10791;53.108;18.326;2023-09-18T08:46:46;23.50;99.90
21267;DHT22;10791;53.108;18.326;2023-09-18T08:51:54;23.80;99.90
21267;DHT22;10791;53.108;18.326;2023-09-18T08:56:58;24.10;99.90
21267;DHT22;10791;53.108;18.326;2023-09-18T09:02:01;24.30;99.90
21267;DHT22;10791;53.108;18.326;2023-09-18T09:07:05;24.60;99.90
21267;DHT22;10791;53.108;18.326;2023-09-18T09:12:09;24.90;99.90
21267;DHT22;10791;53.108;18.326;2023-09-18T09:17:18;25.10;99.90
21267;DHT22;10791;53.108;18.326;2023-09-18T09:22:21;25.30;99.90
21267;DHT22;10791;53.108;18.326;2023-09-18T09:27:25;25.40;99.90
21267;DHT22;10791;53.108;18.326;2023-09-18T09:32:32;25.70;99.90
21267;DHT22;10791;53.108;18.326;2023-09-18T09:37:36;25.90;99.90
21267;DHT22;10791;53.108;18.326;2023-09-18T09:42:40;26.10;99.90
21267;DHT22;10791;53.108;18.326;2023-09-18T09:47:46;26.40;99.90
21267;DHT22;10791;53.108;18.326;2023-09-18T09:52:50;26.60;99.90
21267;DHT22;10791;53.108;18.326;2023-09-18T09:58:01;26.80;99.90
21267;DHT22;10791;53.108;18.326;2023-09-18T10:03:06;26.90;99.10
21267;DHT22;10791;53.108;18.326;2023-09-18T10:08:22;26.90;98.60
21267;DHT22;10791;53.108;18.326;2023-09-18T10:13:46;27.20;97.90
21267;DHT22;10791;53.108;18.326;2023-09-18T10:24:30;27.70;95.30
21267;DHT22;10791;53.108;18.326;2023-09-18T10:29:35;27.80;94.60
21267;DHT22;10791;53.108;18.326;2023-09-18T10:34:40;28.00;94.50
21267;DHT22;10791;53.108;18.326;2023-09-18T10:39:45;28.20;91.60
21267;DHT22;10791;53.108;18.326;2023-09-18T10:44:51;28.30;92.00
21267;DHT22;10791;53.108;18.326;2023-09-18T10:49:54;28.30;90.70
21267;DHT22;10791;53.108;18.326;2023-09-18T10:54:58;28.20;91.30
21267;DHT22;10791;53.108;18.326;2023-09-18T11:00:01;28.40;90.20
21267;DHT22;10791;53.108;18.326;2023-09-18T11:05:29;28.50;89.80
21267;DHT22;10791;53.108;18.326;2023-09-18T11:10:33;28.50;88.30
21267;DHT22;10791;53.108;18.326;2023-09-18T11:15:36;28.40;87.30
21267;DHT22;10791;53.108;18.326;2023-09-18T11:20:40;28.20;86.90
21267;DHT22;10791;53.108;18.326;2023-09-18T11:25:43;28.10;87.30
21267;DHT22;10791;53.108;18.326;2023-09-18T11:30:53;28.10;87.80
21267;DHT22;10791;53.108;18.326;2023-09-18T11:36:07;28.40;87.40
21267;DHT22;10791;53.108;18.326;2023-09-18T11:41:23;28.60;84.80
21267;DHT22;10791;53.108;18.326;2023-09-18T11:46:28;28.70;80.80
21267;DHT22;10791;53.108;18.326;2023-09-18T11:51:34;28.90;80.50
21267;DHT22;10791;53.108;18.326;2023-09-18T11:56:39;28.90;79.90
21267;DHT22;10791;53.108;18.326;2023-09-18T12:01:42;28.90;79.10
21267;DHT22;10791;53.108;18.326;2023-09-18T12:06:49;28.90;77.80
21267;DHT22;10791;53.108;18.326;2023-09-18T12:11:52;29.10;76.90
21267;DHT22;10791;53.108;18.326;2023-09-18T12:16:56;29.20;73.70
21267;DHT22;10791;53.108;18.326;2023-09-18T12:22:04;29.20;73.10
21267;DHT22;10791;53.108;18.326;2023-09-18T12:27:07;29.10;73.50
21267;DHT22;10791;53.108;18.326;2023-09-18T12:32:10;29.30;72.80
21267;DHT22;10791;53.108;18.326;2023-09-18T12:37:17;29.40;71.10
21267;DHT22;10791;53.108;18.326;2023-09-18T12:42:28;29.50;70.50
21267;DHT22;10791;53.108;18.326;2023-09-18T12:47:31;29.70;69.80
21267;DHT22;10791;53.108;18.326;2023-09-18T12:52:34;29.80;67.80
21267;DHT22;10791;53.108;18.326;2023-09-18T12:57:39;29.90;67.00
21267;DHT22;10791;53.108;18.326;2023-09-18T13:02:44;30.10;69.10
21267;DHT22;10791;53.108;18.326;2023-09-18T13:07:48;30.10;67.10
21267;DHT22;10791;53.108;18.326;2023-09-18T13:12:54;30.20;66.30
21267;DHT22;10791;53.108;18.326;2023-09-18T13:18:00;30.10;64.70
21267;DHT22;10791;53.108;18.326;2023-09-18T13:23:03;30.30;63.60
21267;DHT22;10791;53.108;18.326;2023-09-18T13:28:09;30.30;63.30
21267;DHT22;10791;53.108;18.326;2023-09-18T13:33:14;30.20;63.60
21267;DHT22;10791;53.108;18.326;2023-09-18T13:38:18;30.20;64.70
21267;DHT22;10791;53.108;18.326;2023-09-18T13:43:22;30.20;62.90
21267;DHT22;10791;53.108;18.326;2023-09-18T13:48:25;30.20;62.40
21267;DHT22;10791;53.108;18.326;2023-09-18T13:53:29;30.20;62.40
21267;DHT22;10791;53.108;18.326;2023-09-18T13:58:32;30.50;63.10
21267;DHT22;10791;53.108;18.326;2023-09-18T14:03:36;30.60;62.40
21267;DHT22;10791;53.108;18.326;2023-09-18T14:08:40;30.60;62.40
21267;DHT22;10791;53.108;18.326;2023-09-18T14:13:43;30.50;61.00
21267;DHT22;10791;53.108;18.326;2023-09-18T14:18:46;30.50;61.90
21267;DHT22;10791;53.108;18.326;2023-09-18T14:23:49;30.60;61.50
21267;DHT22;10791;53.108;18.326;2023-09-18T14:28:52;30.60;62.30
21267;DHT22;10791;53.108;18.326;2023-09-18T14:33:55;30.50;61.50
21267;DHT22;10791;53.108;18.326;2023-09-18T14:39:02;30.40;62.50
21267;DHT22;10791;53.108;18.326;2023-09-18T14:44:07;30.20;63.10
21267;DHT22;10791;53.108;18.326;2023-09-18T14:49:11;30.10;62.90
21267;DHT22;10791;53.108;18.326;2023-09-18T14:54:14;29.90;62.40
21267;DHT22;10791;53.108;18.326;2023-09-18T14:59:17;29.70;62.60
21267;DHT22;10791;53.108;18.326;2023-09-18T15:04:37;29.70;63.10
21267;DHT22;10791;53.108;18.326;2023-09-18T15:09:40;29.50;63.70
21267;DHT22;10791;53.108;18.326;2023-09-18T15:14:43;29.40;64.10
21267;DHT22;10791;53.108;18.326;2023-09-18T15:19:46;29.10;64.80
21267;DHT22;10791;53.108;18.326;2023-09-18T15:24:51;29.00;65.30
21267;DHT22;10791;53.108;18.326;2023-09-18T15:29:54;28.90;65.90
21267;DHT22;10791;53.108;18.326;2023-09-18T15:35:01;29.00;65.20
21267;DHT22;10791;53.108;18.326;2023-09-18T15:40:06;28.80;65.30
21267;DHT22;10791;53.108;18.326;2023-09-18T15:45:09;28.70;65.90
21267;DHT22;10791;53.108;18.326;2023-09-18T15:50:14;28.50;66.40
21267;DHT22;10791;53.108;18.326;2023-09-18T15:55:17;28.30;67.40
21267;DHT22;10791;53.108;18.326;2023-09-18T16:00:20;28.10;68.10
21267;DHT22;10791;53.108;18.326;2023-09-18T16:05:25;28.00;67.90
21267;DHT22;10791;53.108;18.326;2023-09-18T16:10:28;27.80;68.60
21267;DHT22;10791;53.108;18.326;2023-09-18T16:15:31;27.70;69.20
21267;DHT22;10791;53.108;18.326;2023-09-18T16:20:34;27.60;69.40
21267;DHT22;10791;53.108;18.326;2023-09-18T16:25:37;27.50;69.90
21267;DHT22;10791;53.108;18.326;2023-09-18T16:30:46;27.30;70.70
21267;DHT22;10791;53.108;18.326;2023-09-18T16:35:58;27.10;71.60
21267;DHT22;10791;53.108;18.326;2023-09-18T16:41:01;26.80;73.20
21267;DHT22;10791;53.108;18.326;2023-09-18T16:46:05;26.60;73.20
21267;DHT22;10791;53.108;18.326;2023-09-18T16:51:12;26.40;74.20
21267;DHT22;10791;53.108;18.326;2023-09-18T16:56:15;26.10;75.20
21267;DHT22;10791;53.108;18.326;2023-09-18T17:01:18;26.00;77.30
21267;DHT22;10791;53.108;18.326;2023-09-18T17:06:21;25.70;77.80
21267;DHT22;10791;53.108;18.326;2023-09-18T17:11:24;25.50;78.70
21267;DHT22;10791;53.108;18.326;2023-09-18T17:16:27;25.30;79.60
21267;DHT22;10791;53.108;18.326;2023-09-18T17:21:30;25.00;81.00
21267;DHT22;10791;53.108;18.326;2023-09-18T17:26:33;24.80;81.40
21267;DHT22;10791;53.108;18.326;2023-09-18T17:31:40;24.70;83.00
21267;DHT22;10791;53.108;18.326;2023-09-18T17:36:44;24.50;83.80
21267;DHT22;10791;53.108;18.326;2023-09-18T17:41:51;24.40;84.80
21267;DHT22;10791;53.108;18.326;2023-09-18T17:46:55;24.20;86.00
21267;DHT22;10791;53.108;18.326;2023-09-18T17:51:58;24.10;87.10
21267;DHT22;10791;53.108;18.326;2023-09-18T17:57:06;24.00;87.90
21267;DHT22;10791;53.108;18.326;2023-09-18T18:02:10;24.00;88.50
21267;DHT22;10791;53.108;18.326;2023-09-18T18:07:14;24.00;89.10
21267;DHT22;10791;53.108;18.326;2023-09-18T18:12:18;23.90;89.50
21267;DHT22;10791;53.108;18.326;2023-09-18T18:17:23;23.80;90.10
21267;DHT22;10791;53.108;18.326;2023-09-18T18:22:26;23.70;90.70
21267;DHT22;10791;53.108;18.326;2023-09-18T18:27:29;23.60;91.10
21267;DHT22;10791;53.108;18.326;2023-09-18T18:32:32;23.50;91.20
21267;DHT22;10791;53.108;18.326;2023-09-18T18:37:36;23.30;91.50
21267;DHT22;10791;53.108;18.326;2023-09-18T18:42:39;23.30;91.40
21267;DHT22;10791;53.108;18.326;2023-09-18T18:47:44;23.30;91.70
21267;DHT22;10791;53.108;18.326;2023-09-18T18:52:47;23.20;91.80
21267;DHT22;10791;53.108;18.326;2023-09-18T18:57:50;23.20;92.10
21267;DHT22;10791;53.108;18.326;2023-09-18T19:02:54;23.00;92.40
21267;DHT22;10791;53.108;18.326;2023-09-18T19:07:58;22.90;92.90
21267;DHT22;10791;53.108;18.326;2023-09-18T19:13:01;22.90;93.30
21267;DHT22;10791;53.108;18.326;2023-09-18T19:18:05;22.70;94.00
21267;DHT22;10791;53.108;18.326;2023-09-18T19:28:57;22.40;95.30
21267;DHT22;10791;53.108;18.326;2023-09-18T19:34:00;22.30;95.90
21267;DHT22;10791;53.108;18.326;2023-09-18T19:39:11;22.30;96.60
21267;DHT22;10791;53.108;18.326;2023-09-18T19:44:19;22.20;97.30
21267;DHT22;10791;53.108;18.326;2023-09-18T19:49:32;22.00;98.00
21267;DHT22;10791;53.108;18.326;2023-09-18T19:54:44;21.90;98.80
21267;DHT22;10791;53.108;18.326;2023-09-18T19:59:58;21.90;99.60
21267;DHT22;10791;53.108;18.326;2023-09-18T20:05:03;21.80;99.90
21267;DHT22;10791;53.108;18.326;2023-09-18T20:10:08;21.80;99.90
21267;DHT22;10791;53.108;18.326;2023-09-18T20:15:23;21.80;99.90
21267;DHT22;10791;53.108;18.326;2023-09-18T20:20:32;21.70;99.90
21267;DHT22;10791;53.108;18.326;2023-09-18T20:25:42;21.70;99.90
21267;DHT22;10791;53.108;18.326;2023-09-18T20:30:51;21.60;99.90
21267;DHT22;10791;53.108;18.326;2023-09-18T20:36:00;21.60;99.90
21267;DHT22;10791;53.108;18.326;2023-09-18T20:41:04;21.50;99.90
21267;DHT22;10791;53.108;18.326;2023-09-18T20:46:11;21.40;99.90
21267;DHT22;10791;53.108;18.326;2023-09-18T20:51:15;21.40;99.90
21267;DHT22;10791;53.108;18.326;2023-09-18T20:56:22;21.40;99.90
21267;DHT22;10791;53.108;18.326;2023-09-18T21:01:26;21.40;99.90
21267;DHT22;10791;53.108;18.326;2023-09-18T21:06:31;21.40;99.90
21267;DHT22;10791;53.108;18.326;2023-09-18T21:11:39;21.40;99.90
21267;DHT22;10791;53.108;18.326;2023-09-18T21:16:47;21.40;99.90
21267;DHT22;10791;53.108;18.326;2023-09-18T21:21:50;21.30;99.90
21267;DHT22;10791;53.108;18.326;2023-09-18T21:26:54;21.30;99.90
21267;DHT22;10791;53.108;18.326;2023-09-18T21:31:58;21.20;99.90
21267;DHT22;10791;53.108;18.326;2023-09-18T21:37:04;21.10;99.90
21267;DHT22;10791;53.108;18.326;2023-09-18T21:42:07;21.10;99.90
21267;DHT22;10791;53.108;18.326;2023-09-18T21:47:11;21.00;99.90
21267;DHT22;10791;53.108;18.326;2023-09-18T21:52:15;21.00;99.90
21267;DHT22;10791;53.108;18.326;2023-09-18T21:57:20;20.90;99.90
21267;DHT22;10791;53.108;18.326;2023-09-18T22:02:24;20.90;99.90
21267;DHT22;10791;53.108;18.326;2023-09-18T22:07:28;20.80;99.90
21267;DHT22;10791;53.108;18.326;2023-09-18T22:12:32;20.80;99.90
21267;DHT22;10791;53.108;18.326;2023-09-18T22:17:35;20.70;99.90
21267;DHT22;10791;53.108;18.326;2023-09-18T22:22:38;20.70;99.90
21267;DHT22;10791;53.108;18.326;2023-09-18T22:27:41;20.70;99.90
21267;DHT22;10791;53.108;18.326;2023-09-18T22:32:45;20.60;99.90
21267;DHT22;10791;53.108;18.326;2023-09-18T22:37:56;20.60;99.90
21267;DHT22;10791;53.108;18.326;2023-09-18T22:59:27;20.30;99.90
21267;DHT22;10791;53.108;18.326;2023-09-18T23:04:33;20.10;99.90
21267;DHT22;10791;53.108;18.326;2023-09-18T23:09:39;20.00;99.90
21267;DHT22;10791;53.108;18.326;2023-09-18T23:14:42;19.90;99.90
21267;DHT22;10791;53.108;18.326;2023-09-18T23:19:47;19.70;99.90
21267;DHT22;10791;53.108;18.326;2023-09-18T23:24:50;19.70;99.90
21267;DHT22;10791;53.108;18.326;2023-09-18T23:29:55;19.60;99.90
21267;DHT22;10791;53.108;18.326;2023-09-18T23:34:58;19.50;99.90
21267;DHT22;10791;53.108;18.326;2023-09-18T23:40:03;19.40;99.90
21267;DHT22;10791;53.108;18.326;2023-09-18T23:45:10;19.40;99.90
21267;DHT22;10791;53.108;18.326;2023-09-18T23:50:15;19.40;99.90
21267;DHT22;10791;53.108;18.326;2023-09-18T23:55:18;19.30;99.90
